createdAt,value
2023-05-18T00:00:15.488Z,4.17
2023-05-18T00:01:15.549Z,4.39
2023-05-18T00:02:15.518Z,4.83
2023-05-18T00:03:15.642Z,4.70
2023-05-18T00:04:15.655Z,5.10
2023-05-18T00:05:15.576Z,4.26
2023-05-18T00:06:15.591Z,4.63
2023-05-18T00:07:15.591Z,4.85
2023-05-18T00:08:15.599Z,4.43
2023-05-18T00:09:15.644Z,4.75
2023-05-18T00:10:15.715Z,4.80
2023-05-18T00:11:15.684Z,4.34
2023-05-18T00:12:15.745Z,4.25
2023-05-18T00:13:15.792Z,4.06
2023-05-18T00:14:15.785Z,4.89
2023-05-18T00:15:15.778Z,4.75
2023-05-18T00:16:15.904Z,4.79
2023-05-18T00:17:15.840Z,4.39
2023-05-18T00:18:15.843Z,4.98
2023-05-18T00:19:15.886Z,4.32
2023-05-18T00:20:15.813Z,4.64
2023-05-18T00:21:15.830Z,4.67
2023-05-18T00:22:15.830Z,4.58
2023-05-18T00:23:15.895Z,4.35
2023-05-18T00:24:15.963Z,4.53
2023-05-18T00:25:15.963Z,4.28
2023-05-18T00:26:15.966Z,4.34
2023-05-18T00:27:15.994Z,4.22
2023-05-18T00:28:16.006Z,4.43
2023-05-18T00:29:16.009Z,4.70
2023-05-18T00:30:16.063Z,4.73
2023-05-18T00:31:16.057Z,4.31
2023-05-18T00:32:16.068Z,4.24
2023-05-18T00:33:16.098Z,4.12
2023-05-18T00:34:16.194Z,4.38
2023-05-18T00:35:16.207Z,4.34
2023-05-18T00:36:16.239Z,4.55
2023-05-18T00:37:16.280Z,3.92
2023-05-18T00:38:16.353Z,4.59
2023-05-18T00:39:16.345Z,4.14
2023-05-18T00:40:16.378Z,4.17
2023-05-18T00:41:16.408Z,3.91
2023-05-18T00:42:16.429Z,4.98
2023-05-18T00:43:16.437Z,5.04
2023-05-18T00:44:16.417Z,5.18
2023-05-18T00:45:16.480Z,4.84
2023-05-18T00:46:16.527Z,4.79
2023-05-18T00:47:16.506Z,5.23
2023-05-18T00:48:16.621Z,5.49
2023-05-18T00:49:16.556Z,5.37
2023-05-18T00:50:16.593Z,4.82
2023-05-18T00:51:16.602Z,5.06
2023-05-18T00:52:16.688Z,5.64
2023-05-18T00:53:16.741Z,5.06
2023-05-18T00:54:16.770Z,5.55
2023-05-18T00:55:16.828Z,5.11
2023-05-18T00:56:16.882Z,5.32
2023-05-18T00:57:16.945Z,5.43
2023-05-18T00:58:17.015Z,5.66
2023-05-18T00:59:17.017Z,5.32
2023-05-18T01:00:17.125Z,5.49
2023-05-18T01:01:17.204Z,5.85
2023-05-18T01:02:17.259Z,5.46
2023-05-18T01:03:17.295Z,6.15
2023-05-18T01:04:17.320Z,5.75
2023-05-18T01:05:17.390Z,5.85
2023-05-18T01:06:17.424Z,5.62
2023-05-18T01:07:17.475Z,5.82
2023-05-18T01:08:17.488Z,6.08
2023-05-18T01:09:17.519Z,5.51
2023-05-18T01:10:17.591Z,5.55
2023-05-18T01:11:17.665Z,6.02
2023-05-18T01:12:17.666Z,5.75
2023-05-18T01:13:17.698Z,5.39
2023-05-18T01:14:17.720Z,5.79
2023-05-18T01:15:17.756Z,5.19
2023-05-18T01:16:17.763Z,5.27
2023-05-18T01:17:17.839Z,5.60
2023-05-18T01:18:17.879Z,5.26
2023-05-18T01:19:17.904Z,5.00
2023-05-18T01:20:17.844Z,4.73
2023-05-18T01:21:17.809Z,5.50
2023-05-18T01:22:17.821Z,4.84
2023-05-18T01:23:17.876Z,5.40
2023-05-18T01:24:17.900Z,5.43
2023-05-18T01:25:17.949Z,5.32
2023-05-18T01:26:17.980Z,5.89
2023-05-18T01:27:17.958Z,5.48
2023-05-18T01:28:17.962Z,5.13
2023-05-18T01:29:17.973Z,5.50
2023-05-18T01:30:17.969Z,6.01
2023-05-18T01:31:18.088Z,5.57
2023-05-18T01:32:17.999Z,5.77
2023-05-18T01:33:18.027Z,6.17
2023-05-18T01:34:17.987Z,6.12
2023-05-18T01:35:18.021Z,6.51
2023-05-18T01:36:18.031Z,6.14
2023-05-18T01:37:18.001Z,6.11
2023-05-18T01:38:17.997Z,5.83
2023-05-18T01:39:17.991Z,6.22
2023-05-18T01:40:18.000Z,5.86
2023-05-18T01:41:18.036Z,6.87
2023-05-18T01:42:18.106Z,6.16
2023-05-18T01:43:18.206Z,5.82
2023-05-18T01:44:18.222Z,6.94
2023-05-18T01:45:18.290Z,6.60
2023-05-18T01:46:18.421Z,7.20
2023-05-18T01:47:18.344Z,7.05
2023-05-18T01:48:18.403Z,7.03
2023-05-18T01:49:18.431Z,7.25
2023-05-18T01:50:18.422Z,7.28
2023-05-18T01:51:18.413Z,7.12
2023-05-18T01:52:18.392Z,8.05
2023-05-18T01:53:18.418Z,7.87
2023-05-18T01:54:18.412Z,6.94
2023-05-18T01:55:18.394Z,7.30
2023-05-18T01:56:18.379Z,7.29
2023-05-18T01:57:18.399Z,7.05
2023-05-18T01:58:18.392Z,7.81
2023-05-18T01:59:18.387Z,7.39
2023-05-18T02:00:18.432Z,6.94
2023-05-18T02:01:18.530Z,6.41
2023-05-18T02:02:18.609Z,6.91
2023-05-18T02:03:18.669Z,6.35
2023-05-18T02:04:18.673Z,6.49
2023-05-18T02:05:18.653Z,6.71
2023-05-18T02:06:18.624Z,6.70
2023-05-18T02:07:18.636Z,6.60
2023-05-18T02:08:18.700Z,6.44
2023-05-18T02:09:18.722Z,6.79
2023-05-18T02:10:18.712Z,7.08
2023-05-18T02:11:18.754Z,7.88
2023-05-18T02:12:18.828Z,7.29
2023-05-18T02:13:18.783Z,6.75
2023-05-18T02:14:18.770Z,7.71
2023-05-18T02:15:18.771Z,8.42
2023-05-18T02:16:18.854Z,7.78
2023-05-18T02:17:18.804Z,7.10
2023-05-18T02:18:18.750Z,7.87
2023-05-18T02:19:18.886Z,8.45
2023-05-18T02:20:18.806Z,7.56
2023-05-18T02:21:18.805Z,8.81
2023-05-18T02:22:18.847Z,7.71
2023-05-18T02:23:18.835Z,8.30
2023-05-18T02:24:18.889Z,8.28
2023-05-18T02:25:18.909Z,8.29
2023-05-18T02:26:18.895Z,8.27
2023-05-18T02:27:18.910Z,8.97
2023-05-18T02:28:18.917Z,8.71
2023-05-18T02:29:18.962Z,7.80
2023-05-18T02:30:18.994Z,7.79
2023-05-18T02:31:18.971Z,8.64
2023-05-18T02:32:18.959Z,8.22
2023-05-18T02:33:18.997Z,8.11
2023-05-18T02:34:19.031Z,8.17
2023-05-18T02:35:19.004Z,7.62
2023-05-18T02:36:19.042Z,7.60
2023-05-18T02:37:19.065Z,7.90
2023-05-18T02:38:19.064Z,7.97
2023-05-18T02:39:19.047Z,7.40
2023-05-18T02:40:19.101Z,7.81
2023-05-18T02:41:19.151Z,7.35
2023-05-18T02:42:19.156Z,7.50
2023-05-18T02:43:19.178Z,7.60
2023-05-18T02:44:19.250Z,7.76
2023-05-18T02:45:19.278Z,7.05
2023-05-18T02:46:19.395Z,7.15
2023-05-18T02:47:19.402Z,7.34
2023-05-18T02:48:19.499Z,7.27
2023-05-18T02:49:19.512Z,7.64
2023-05-18T02:50:19.559Z,7.33
2023-05-18T02:51:19.601Z,7.68
2023-05-18T02:52:19.683Z,7.07
2023-05-18T02:53:19.753Z,7.32
2023-05-18T02:54:19.882Z,6.81
2023-05-18T02:55:19.874Z,7.14
2023-05-18T02:56:19.918Z,7.34
2023-05-18T02:57:19.938Z,7.67
2023-05-18T02:58:20.049Z,7.40
2023-05-18T02:59:20.146Z,7.68
2023-05-18T03:00:20.149Z,7.61
2023-05-18T03:01:20.321Z,7.32
2023-05-18T03:02:20.279Z,7.65
2023-05-18T03:03:20.416Z,7.96
2023-05-18T03:04:20.368Z,7.19
2023-05-18T03:05:20.401Z,7.43
2023-05-18T03:06:20.442Z,7.77
2023-05-18T03:07:20.458Z,8.29
2023-05-18T03:08:20.465Z,8.23
2023-05-18T03:09:20.502Z,7.88
2023-05-18T03:10:20.496Z,8.04
2023-05-18T03:11:20.558Z,8.70
2023-05-18T03:12:20.497Z,8.01
2023-05-18T03:13:20.498Z,7.82
2023-05-18T03:14:20.588Z,7.72
2023-05-18T03:15:20.637Z,7.59
2023-05-18T03:16:20.628Z,7.21
2023-05-18T03:17:20.642Z,8.22
2023-05-18T03:18:20.713Z,7.06
2023-05-18T03:19:20.738Z,7.43
2023-05-18T03:20:20.725Z,7.52
2023-05-18T03:21:20.712Z,7.29
2023-05-18T03:22:20.722Z,7.49
2023-05-18T03:23:20.668Z,8.55
2023-05-18T03:24:20.693Z,7.57
2023-05-18T03:25:20.637Z,8.43
2023-05-18T03:26:20.964Z,8.05
2023-05-18T03:27:20.663Z,8.55
2023-05-18T03:28:20.666Z,7.82
2023-05-18T03:29:20.646Z,8.15
2023-05-18T03:30:20.623Z,8.03
2023-05-18T03:31:20.723Z,6.86
2023-05-18T03:32:20.697Z,7.26
2023-05-18T03:33:20.760Z,7.53
2023-05-18T03:34:20.832Z,7.24
2023-05-18T03:35:20.862Z,7.59
2023-05-18T03:36:20.922Z,7.33
2023-05-18T03:37:21.000Z,8.21
2023-05-18T03:38:21.066Z,8.36
2023-05-18T03:39:21.069Z,8.47
2023-05-18T03:40:21.113Z,7.97
2023-05-18T03:41:21.113Z,7.89
2023-05-18T03:42:21.164Z,8.25
2023-05-18T03:43:21.193Z,7.48
2023-05-18T03:44:21.215Z,8.09
2023-05-18T03:45:21.245Z,8.06
2023-05-18T03:46:21.305Z,8.20
2023-05-18T03:47:21.301Z,8.14
2023-05-18T03:48:21.320Z,8.18
2023-05-18T03:49:21.331Z,7.28
2023-05-18T03:50:21.381Z,7.83
2023-05-18T03:51:21.342Z,8.10
2023-05-18T03:52:21.414Z,7.67
2023-05-18T03:53:21.461Z,7.56
2023-05-18T03:54:21.416Z,8.20
2023-05-18T03:55:21.476Z,8.10
2023-05-18T03:56:21.460Z,8.50
2023-05-18T03:57:21.500Z,7.81
2023-05-18T03:58:21.538Z,8.60
2023-05-18T03:59:21.557Z,9.42
2023-05-18T04:00:21.625Z,8.03
2023-05-18T04:01:21.643Z,8.37
2023-05-18T04:02:21.724Z,8.72
2023-05-18T04:03:21.804Z,8.42
2023-05-18T04:04:21.837Z,8.08
2023-05-18T04:05:21.756Z,8.38
2023-05-18T04:06:21.821Z,8.74
2023-05-18T04:07:21.820Z,7.92
2023-05-18T04:08:21.870Z,8.68
2023-05-18T04:09:21.835Z,7.45
2023-05-18T04:10:21.878Z,7.96
2023-05-18T04:11:21.906Z,8.66
2023-05-18T04:12:21.947Z,7.58
2023-05-18T04:13:22.053Z,7.93
2023-05-18T04:14:22.083Z,8.40
2023-05-18T04:15:22.216Z,8.52
2023-05-18T04:16:22.209Z,8.64
2023-05-18T04:17:22.203Z,8.22
2023-05-18T04:18:22.146Z,8.19
2023-05-18T04:19:22.174Z,8.19
2023-05-18T04:20:22.188Z,7.97
2023-05-18T04:21:22.177Z,7.97
2023-05-18T04:22:22.231Z,7.92
2023-05-18T04:23:22.288Z,8.43
2023-05-18T04:24:22.409Z,8.86
2023-05-18T04:25:22.412Z,7.80
2023-05-18T04:26:22.418Z,9.21
2023-05-18T04:27:22.497Z,7.82
2023-05-18T04:28:22.499Z,8.31
2023-05-18T04:29:22.566Z,7.88
2023-05-18T04:30:22.640Z,7.86
2023-05-18T04:31:22.596Z,7.82
2023-05-18T04:32:22.584Z,7.93
2023-05-18T04:33:22.647Z,7.48
2023-05-18T04:34:22.623Z,7.82
2023-05-18T04:35:22.690Z,8.41
2023-05-18T04:36:22.650Z,8.76
2023-05-18T04:37:22.690Z,8.02
2023-05-18T04:38:22.698Z,8.03
2023-05-18T04:39:22.771Z,7.97
2023-05-18T04:40:22.858Z,7.49
2023-05-18T04:41:22.952Z,8.27
2023-05-18T04:42:22.927Z,8.10
2023-05-18T04:43:22.951Z,7.98
2023-05-18T04:44:22.954Z,8.35
2023-05-18T04:45:23.031Z,8.18
2023-05-18T04:46:23.052Z,8.17
2023-05-18T04:47:23.072Z,9.28
2023-05-18T04:48:23.104Z,8.60
2023-05-18T04:49:23.189Z,8.87
2023-05-18T04:50:23.233Z,8.78
2023-05-18T04:51:23.294Z,8.16
2023-05-18T04:52:23.341Z,8.78
2023-05-18T04:53:23.412Z,8.86
2023-05-18T04:54:23.521Z,8.68
2023-05-18T04:55:23.523Z,9.39
2023-05-18T04:56:23.631Z,8.32
2023-05-18T04:57:23.693Z,8.98
2023-05-18T04:58:23.696Z,9.09
2023-05-18T04:59:23.764Z,9.18
2023-05-18T05:00:23.775Z,9.11
2023-05-18T05:02:51.732Z,8.71
2023-05-18T05:03:44.115Z,9.56
2023-05-18T05:04:43.811Z,8.69
2023-05-18T05:05:43.785Z,8.56
2023-05-18T05:06:43.829Z,9.04
2023-05-18T05:07:43.722Z,9.61
2023-05-18T05:08:44.420Z,8.64
2023-05-18T05:09:43.771Z,9.33
2023-05-18T05:10:43.745Z,8.64
2023-05-18T05:11:43.699Z,9.12
2023-05-18T05:12:45.704Z,8.94
2023-05-18T05:13:43.836Z,8.56
2023-05-18T05:14:43.873Z,7.64
2023-05-18T05:15:43.895Z,8.48
2023-05-18T05:16:43.852Z,8.52
2023-05-18T05:17:43.929Z,8.58
2023-05-18T05:18:44.700Z,8.00
2023-05-18T05:19:44.494Z,7.69
2023-05-18T05:20:43.900Z,7.84
2023-05-18T05:21:43.756Z,8.53
2023-05-18T05:22:43.761Z,8.53
2023-05-18T05:23:43.775Z,7.65
2023-05-18T05:24:44.442Z,7.89
2023-05-18T05:25:43.780Z,8.40
2023-05-18T05:26:43.712Z,8.25
2023-05-18T05:27:43.734Z,8.11
2023-05-18T05:28:43.772Z,8.23
2023-05-18T05:29:43.725Z,8.56
2023-05-18T05:30:43.738Z,8.67
2023-05-18T05:31:43.789Z,8.41
2023-05-18T05:32:43.826Z,7.78
2023-05-18T05:33:43.680Z,8.04
2023-05-18T05:34:43.728Z,7.92
2023-05-18T05:35:43.657Z,7.38
2023-05-18T05:36:44.478Z,9.08
2023-05-18T05:37:43.616Z,7.75
2023-05-18T05:38:43.631Z,7.34
2023-05-18T05:39:43.645Z,7.28
2023-05-18T05:40:43.624Z,7.44
2023-05-18T05:41:43.624Z,7.69
2023-05-18T05:42:43.626Z,8.09
2023-05-18T05:43:43.637Z,7.23
2023-05-18T05:44:44.464Z,7.39
2023-05-18T05:45:51.502Z,7.33
2023-05-18T05:46:43.571Z,6.82
2023-05-18T05:47:43.599Z,6.48
2023-05-18T05:48:43.522Z,8.17
2023-05-18T05:49:43.503Z,7.57
2023-05-18T05:50:43.540Z,7.16
2023-05-18T05:51:43.492Z,6.95
2023-05-18T05:52:43.546Z,7.19
2023-05-18T05:53:43.466Z,6.82
2023-05-18T05:54:43.480Z,6.61
2023-05-18T05:55:43.461Z,7.25
2023-05-18T05:56:43.486Z,7.04
2023-05-18T05:57:43.477Z,7.07
2023-05-18T05:58:43.458Z,6.72
2023-05-18T05:59:43.444Z,6.68
2023-05-18T06:00:43.474Z,7.24
2023-05-18T06:01:43.525Z,6.61
2023-05-18T06:02:43.530Z,6.97
2023-05-18T06:03:43.500Z,6.72
2023-05-18T06:04:43.470Z,8.19
2023-05-18T06:05:43.504Z,7.66
2023-05-18T06:06:43.531Z,6.88
2023-05-18T06:07:43.551Z,7.06
2023-05-18T06:08:43.577Z,6.67
2023-05-18T06:09:43.636Z,6.55
2023-05-18T06:10:43.651Z,7.51
2023-05-18T06:11:43.651Z,6.47
2023-05-18T06:12:43.602Z,6.73
2023-05-18T06:13:43.602Z,6.01
2023-05-18T06:14:43.621Z,6.29
2023-05-18T06:15:43.629Z,7.06
2023-05-18T06:16:43.656Z,7.30
2023-05-18T06:17:43.655Z,6.46
2023-05-18T06:18:43.640Z,6.45
2023-05-18T06:19:43.603Z,6.18
2023-05-18T06:20:43.563Z,6.62
2023-05-18T06:21:43.605Z,6.63
2023-05-18T06:22:43.652Z,6.53
2023-05-18T06:23:43.658Z,6.48
2023-05-18T06:24:43.644Z,6.80
2023-05-18T06:25:43.675Z,7.22
2023-05-18T06:26:43.786Z,6.55
2023-05-18T06:27:43.815Z,7.81
2023-05-18T06:28:43.778Z,6.55
2023-05-18T06:29:43.743Z,6.72
2023-05-18T06:30:43.794Z,6.79
2023-05-18T06:31:43.832Z,5.98
2023-05-18T06:32:43.911Z,6.41
2023-05-18T06:33:43.865Z,6.82
2023-05-18T06:34:43.922Z,6.79
2023-05-18T06:35:43.995Z,6.35
2023-05-18T06:36:44.044Z,6.41
2023-05-18T06:37:46.193Z,6.49
2023-05-18T06:38:44.049Z,6.94
2023-05-18T06:39:44.053Z,6.96
2023-05-18T06:40:44.004Z,6.91
2023-05-18T06:41:44.067Z,7.75
2023-05-18T06:42:43.974Z,6.58
2023-05-18T06:43:44.000Z,6.97
2023-05-18T06:44:43.980Z,6.81
2023-05-18T06:45:44.037Z,6.61
2023-05-18T06:46:44.110Z,6.50
2023-05-18T06:47:44.050Z,6.50
2023-05-18T06:48:43.965Z,6.82
2023-05-18T06:49:43.962Z,6.16
2023-05-18T06:50:43.963Z,6.57
2023-05-18T06:51:44.071Z,7.24
2023-05-18T06:52:43.913Z,6.60
2023-05-18T06:53:43.952Z,6.29
2023-05-18T06:54:44.010Z,7.08
2023-05-18T06:55:43.987Z,6.68
2023-05-18T06:56:43.997Z,6.86
2023-05-18T06:57:44.040Z,6.06
2023-05-18T06:58:44.080Z,6.67
2023-05-18T06:59:44.094Z,6.46
2023-05-18T07:00:44.072Z,6.77
2023-05-18T07:01:44.172Z,6.33
2023-05-18T07:02:44.183Z,6.53
2023-05-18T07:03:44.283Z,5.77
2023-05-18T07:04:44.235Z,6.37
2023-05-18T07:05:44.257Z,5.97
2023-05-18T07:06:44.280Z,6.71
2023-05-18T07:07:44.272Z,6.61
2023-05-18T07:08:44.249Z,6.99
2023-05-18T07:09:44.261Z,6.86
2023-05-18T07:10:44.270Z,6.25
2023-05-18T07:11:44.312Z,6.62
2023-05-18T07:12:44.269Z,6.41
2023-05-18T07:13:44.284Z,6.86
2023-05-18T07:14:44.312Z,7.16
2023-05-18T07:15:44.306Z,7.27
2023-05-18T07:16:44.302Z,6.81
2023-05-18T07:17:44.360Z,6.33
2023-05-18T07:18:44.354Z,7.22
2023-05-18T07:19:44.349Z,6.60
2023-05-18T07:20:44.370Z,6.82
2023-05-18T07:21:44.361Z,6.77
2023-05-18T07:22:44.380Z,6.46
2023-05-18T07:23:44.372Z,6.54
2023-05-18T07:24:44.363Z,6.72
2023-05-18T07:25:44.393Z,5.92
2023-05-18T07:26:44.410Z,6.58
2023-05-18T07:27:44.442Z,6.48
2023-05-18T07:28:44.422Z,6.50
2023-05-18T07:29:44.451Z,6.67
2023-05-18T07:30:44.533Z,6.46
2023-05-18T07:31:44.556Z,6.59
2023-05-18T07:32:44.567Z,6.40
2023-05-18T07:33:44.533Z,6.47
2023-05-18T07:34:44.506Z,6.73
2023-05-18T07:35:44.497Z,6.90
2023-05-18T07:36:45.411Z,6.85
2023-05-18T07:37:44.450Z,7.14
2023-05-18T07:38:44.488Z,6.58
2023-05-18T07:39:44.487Z,7.03
2023-05-18T07:40:44.441Z,6.45
2023-05-18T07:41:44.506Z,6.88
2023-05-18T07:42:44.442Z,6.62
2023-05-18T07:43:44.426Z,6.25
2023-05-18T07:44:44.444Z,6.34
2023-05-18T07:45:44.543Z,6.32
2023-05-18T07:46:44.680Z,5.70
2023-05-18T07:47:44.698Z,6.19
2023-05-18T07:48:44.653Z,5.63
2023-05-18T07:49:44.762Z,6.54
2023-05-18T07:50:44.814Z,5.92
2023-05-18T07:51:44.881Z,5.72
2023-05-18T07:52:44.875Z,5.82
2023-05-18T07:53:44.901Z,5.62
2023-05-18T07:54:44.973Z,5.46
2023-05-18T07:55:44.929Z,6.33
2023-05-18T07:56:45.049Z,6.59
2023-05-18T07:57:45.097Z,5.55
2023-05-18T07:58:45.192Z,5.77
2023-05-18T07:59:45.243Z,5.80
2023-05-18T08:00:45.265Z,5.77
2023-05-18T08:01:45.401Z,6.22
2023-05-18T08:02:45.460Z,5.60
2023-05-18T08:03:45.393Z,5.44
2023-05-18T08:04:45.312Z,5.96
2023-05-18T08:05:45.363Z,5.47
2023-05-18T08:06:45.430Z,4.88
2023-05-18T08:07:45.422Z,5.02
2023-05-18T08:08:53.082Z,5.57
2023-05-18T08:09:45.463Z,5.09
2023-05-18T08:10:45.461Z,5.10
2023-05-18T08:11:45.444Z,5.29
2023-05-18T08:12:45.434Z,5.66
2023-05-18T08:13:45.427Z,5.59
2023-05-18T08:14:45.394Z,10.69
2023-05-18T08:15:46.377Z,6.35
2023-05-18T08:16:45.460Z,6.43
2023-05-18T08:17:45.436Z,5.22
2023-05-18T08:18:45.461Z,5.10
2023-05-18T08:19:45.379Z,4.72
2023-05-18T08:20:45.403Z,4.50
2023-05-18T08:21:45.395Z,4.22
2023-05-18T08:22:45.392Z,4.96
2023-05-18T08:23:45.357Z,5.21
2023-05-18T08:24:45.366Z,4.99
2023-05-18T08:25:45.367Z,4.99
2023-05-18T08:26:45.994Z,5.00
2023-05-18T08:27:45.341Z,4.69
2023-05-18T08:28:45.363Z,4.59
2023-05-18T08:29:45.311Z,4.02
2023-05-18T08:30:45.297Z,4.71
2023-05-18T08:31:47.009Z,5.09
2023-05-18T08:32:45.350Z,4.53
2023-05-18T08:33:45.258Z,4.73
2023-05-18T08:34:45.270Z,5.13
2023-05-18T08:35:45.280Z,5.68
2023-05-18T08:36:45.274Z,5.72
2023-05-18T08:37:45.287Z,5.48
2023-05-18T08:38:45.230Z,4.64
2023-05-18T08:39:45.242Z,4.90
2023-05-18T08:40:45.252Z,5.04
2023-05-18T08:41:45.209Z,4.58
2023-05-18T08:42:49.911Z,4.94
2023-05-18T08:43:46.261Z,4.45
2023-05-18T08:44:45.225Z,5.18
2023-05-18T08:45:45.191Z,4.79
2023-05-18T08:46:45.190Z,4.37
2023-05-18T08:47:45.301Z,5.05
2023-05-18T08:48:45.185Z,4.93
2023-05-18T08:49:45.167Z,4.94
2023-05-18T08:50:45.216Z,4.26
2023-05-18T08:51:45.190Z,3.82
2023-05-18T08:52:45.126Z,4.56
2023-05-18T08:53:45.153Z,5.13
2023-05-18T08:54:45.154Z,4.46
2023-05-18T08:55:45.164Z,4.25
2023-05-18T08:56:45.223Z,4.05
2023-05-18T08:57:56.691Z,4.54
2023-05-18T08:58:45.350Z,4.39
2023-05-18T08:59:45.382Z,4.90
2023-05-18T09:00:45.375Z,4.97
2023-05-18T09:01:45.527Z,4.78
2023-05-18T09:02:45.530Z,5.00
2023-05-18T09:03:45.509Z,4.61
2023-05-18T09:04:45.489Z,4.41
2023-05-18T09:05:45.497Z,5.46
2023-05-18T09:06:45.503Z,5.22
2023-05-18T09:07:45.495Z,4.82
2023-05-18T09:08:45.456Z,4.48
2023-05-18T09:09:45.453Z,3.98
2023-05-18T09:10:45.407Z,4.46
2023-05-18T09:11:45.412Z,4.58
2023-05-18T09:12:45.448Z,4.72
2023-05-18T09:13:45.449Z,5.07
2023-05-18T09:14:45.384Z,5.35
2023-05-18T09:15:45.513Z,4.53
2023-05-18T09:16:45.528Z,4.75
2023-05-18T09:17:45.592Z,5.01
2023-05-18T09:18:45.692Z,5.16
2023-05-18T09:19:45.676Z,4.89
2023-05-18T09:20:45.652Z,4.99
2023-05-18T09:21:45.652Z,4.67
2023-05-18T09:22:45.682Z,4.60
2023-05-18T09:23:45.706Z,4.84
2023-05-18T09:24:45.737Z,4.10
2023-05-18T09:25:45.741Z,4.96
2023-05-18T09:26:45.769Z,4.65
2023-05-18T09:27:45.771Z,4.59
2023-05-18T09:28:45.809Z,4.74
2023-05-18T09:29:45.882Z,4.28
2023-05-18T09:30:45.942Z,3.99
2023-05-18T09:31:46.031Z,4.17
2023-05-18T09:32:46.123Z,3.97
2023-05-18T09:33:46.160Z,3.93
2023-05-18T09:34:46.163Z,3.58
2023-05-18T09:35:47.116Z,4.01
2023-05-18T09:36:46.125Z,3.71
2023-05-18T09:37:46.081Z,3.95
2023-05-18T09:38:46.277Z,4.03
2023-05-18T09:39:46.058Z,3.74
2023-05-18T09:40:46.070Z,3.92
2023-05-18T09:41:46.056Z,3.91
2023-05-18T09:42:46.080Z,4.00
2023-05-18T09:43:46.072Z,3.87
2023-05-18T09:44:46.056Z,3.89
2023-05-18T09:45:46.076Z,4.26
2023-05-18T09:46:46.131Z,4.13
2023-05-18T09:47:46.111Z,4.03
2023-05-18T09:48:46.077Z,3.91
2023-05-18T09:49:46.002Z,4.08
2023-05-18T09:50:45.963Z,4.17
2023-05-18T09:51:46.488Z,4.37
2023-05-18T09:52:46.010Z,4.07
2023-05-18T09:53:46.348Z,4.06
2023-05-18T09:54:46.017Z,4.10
2023-05-18T09:55:46.347Z,4.35
2023-05-18T09:56:52.284Z,4.22
2023-05-18T09:57:47.102Z,4.18
2023-05-18T09:58:46.124Z,4.97
2023-05-18T09:59:46.062Z,4.31
2023-05-18T10:00:46.131Z,4.40
2023-05-18T10:01:46.056Z,4.45
2023-05-18T10:02:46.070Z,4.42
2023-05-18T10:03:46.163Z,4.10
2023-05-18T10:04:46.104Z,4.56
2023-05-18T10:05:46.035Z,4.90
2023-05-18T10:06:46.098Z,4.77
2023-05-18T10:07:46.133Z,4.58
2023-05-18T10:08:46.000Z,4.47
2023-05-18T10:09:46.023Z,4.51
2023-05-18T10:10:46.010Z,4.68
2023-05-18T10:11:46.356Z,5.21
2023-05-18T10:12:46.044Z,4.76
2023-05-18T10:13:45.980Z,5.41
2023-05-18T10:14:45.964Z,4.78
2023-05-18T10:15:46.002Z,5.09
2023-05-18T10:16:46.106Z,5.30
2023-05-18T10:17:46.066Z,5.05
2023-05-18T10:18:46.045Z,4.54
2023-05-18T10:19:46.093Z,4.99
2023-05-18T10:20:46.148Z,4.95
2023-05-18T10:21:46.142Z,5.21
2023-05-18T10:22:46.270Z,6.09
2023-05-18T10:23:46.223Z,4.70
2023-05-18T10:24:46.225Z,4.59
2023-05-18T10:25:46.198Z,4.33
2023-05-18T10:26:46.240Z,3.96
2023-05-18T10:27:46.185Z,4.58
2023-05-18T10:28:46.193Z,4.41
2023-05-18T10:29:46.194Z,4.64
2023-05-18T10:30:46.189Z,5.00
2023-05-18T10:31:46.296Z,4.48
2023-05-18T10:32:46.200Z,4.27
2023-05-18T10:33:46.189Z,4.20
2023-05-18T10:34:46.187Z,4.22
2023-05-18T10:35:46.241Z,3.91
2023-05-18T10:36:46.210Z,3.80
2023-05-18T10:37:46.215Z,3.51
2023-05-18T10:38:46.176Z,4.40
2023-05-18T10:39:46.210Z,3.35
2023-05-18T10:40:46.177Z,2.97
2023-05-18T10:41:46.130Z,3.00
2023-05-18T10:42:46.165Z,2.66
2023-05-18T10:43:46.136Z,3.40
2023-05-18T10:44:46.164Z,3.48
2023-05-18T10:45:46.105Z,3.63
2023-05-18T10:46:46.186Z,2.93
2023-05-18T10:47:46.255Z,3.31
2023-05-18T10:48:47.940Z,3.19
2023-05-18T10:49:46.116Z,4.06
2023-05-18T10:50:46.112Z,3.25
2023-05-18T10:51:46.117Z,3.24
2023-05-18T10:52:46.083Z,3.03
2023-05-18T10:53:46.072Z,3.28
2023-05-18T10:54:46.067Z,2.96
2023-05-18T10:55:46.031Z,2.92
2023-05-18T10:56:46.036Z,2.68
2023-05-18T10:57:46.050Z,2.70
2023-05-18T10:58:46.062Z,3.25
2023-05-18T10:59:48.077Z,2.37
2023-05-18T11:00:46.226Z,2.65
2023-05-18T11:01:46.334Z,2.86
2023-05-18T11:02:46.696Z,3.17
2023-05-18T11:03:46.300Z,3.00
2023-05-18T11:04:46.373Z,3.04
2023-05-18T11:05:46.377Z,2.94
2023-05-18T11:06:46.411Z,2.99
2023-05-18T11:07:46.425Z,3.29
2023-05-18T11:08:46.503Z,2.94
2023-05-18T11:09:46.501Z,3.20
2023-05-18T11:10:46.540Z,3.33
2023-05-18T11:11:46.636Z,4.68
2023-05-18T11:12:46.621Z,3.74
2023-05-18T11:13:46.659Z,3.51
2023-05-18T11:14:46.637Z,3.20
2023-05-18T11:15:46.661Z,3.61
2023-05-18T11:16:46.712Z,2.74
2023-05-18T11:17:46.667Z,3.26
2023-05-18T11:18:46.758Z,3.07
2023-05-18T11:19:46.662Z,2.78
2023-05-18T11:20:46.619Z,2.48
2023-05-18T11:21:46.634Z,2.42
2023-05-18T11:22:46.763Z,2.55
2023-05-18T11:23:46.621Z,2.36
2023-05-18T11:24:46.626Z,2.19
2023-05-18T11:25:46.629Z,2.10
2023-05-18T11:26:46.659Z,2.04
2023-05-18T11:27:46.660Z,2.27
2023-05-18T11:28:47.854Z,1.95
2023-05-18T11:29:46.793Z,2.85
2023-05-18T11:30:46.684Z,2.48
2023-05-18T11:31:46.730Z,2.70
2023-05-18T11:32:46.757Z,2.25
2023-05-18T11:33:46.726Z,1.97
2023-05-18T11:34:46.673Z,1.83
2023-05-18T11:35:46.664Z,2.02
2023-05-18T11:36:46.627Z,2.35
2023-05-18T11:37:46.629Z,2.40
2023-05-18T11:38:46.797Z,2.43
2023-05-18T11:39:58.159Z,2.53
2023-05-18T11:40:46.625Z,2.74
2023-05-18T11:41:46.660Z,2.39
2023-05-18T11:42:46.645Z,2.57
2023-05-18T11:43:46.565Z,2.30
2023-05-18T11:44:46.622Z,2.76
2023-05-18T11:45:46.613Z,2.49
2023-05-18T11:46:46.658Z,2.17
2023-05-18T11:47:46.607Z,2.51
2023-05-18T11:48:46.676Z,2.43
2023-05-18T11:49:46.547Z,2.56
2023-05-18T11:50:46.509Z,2.55
2023-05-18T11:51:46.520Z,2.32
2023-05-18T11:52:46.519Z,2.75
2023-05-18T11:53:46.529Z,2.53
2023-05-18T11:54:46.487Z,2.93
2023-05-18T11:55:46.512Z,2.82
2023-05-18T11:56:46.566Z,2.22
2023-05-18T11:57:46.633Z,2.24
2023-05-18T11:58:46.634Z,2.39
2023-05-18T11:59:46.689Z,2.67
2023-05-18T12:00:46.673Z,2.53
2023-05-18T12:01:46.784Z,2.05
2023-05-18T12:02:46.862Z,2.71
2023-05-18T12:03:48.623Z,2.44
2023-05-18T12:04:46.788Z,2.78
2023-05-18T12:05:46.728Z,2.39
2023-05-18T12:06:46.730Z,2.15
2023-05-18T12:07:46.707Z,2.24
2023-05-18T12:08:46.734Z,2.25
2023-05-18T12:09:46.740Z,2.42
2023-05-18T12:10:46.814Z,2.35
2023-05-18T12:11:46.821Z,2.37
2023-05-18T12:12:46.797Z,2.25
2023-05-18T12:13:46.867Z,2.65
2023-05-18T12:14:46.878Z,2.42
2023-05-18T12:15:46.871Z,2.52
2023-05-18T12:16:46.972Z,3.07
2023-05-18T12:17:46.995Z,2.68
2023-05-18T12:18:46.960Z,2.62
2023-05-18T12:19:46.929Z,2.51
2023-05-18T12:20:46.972Z,2.20
2023-05-18T12:21:46.932Z,2.50
2023-05-18T12:22:46.947Z,2.50
2023-05-18T12:23:46.932Z,2.53
2023-05-18T12:24:46.918Z,2.63
2023-05-18T12:25:46.952Z,2.03
2023-05-18T12:26:46.923Z,2.90
2023-05-18T12:27:46.906Z,2.38
2023-05-18T12:28:46.928Z,2.66
2023-05-18T12:29:46.920Z,2.62
2023-05-18T12:30:46.933Z,2.58
2023-05-18T12:31:46.885Z,2.57
2023-05-18T12:32:46.938Z,2.72
2023-05-18T12:33:46.896Z,2.72
2023-05-18T12:34:46.902Z,2.41
2023-05-18T12:35:46.921Z,2.18
2023-05-18T12:36:47.004Z,2.27
2023-05-18T12:37:47.563Z,5.27
2023-05-18T12:38:47.022Z,2.65
2023-05-18T12:39:47.097Z,2.51
2023-05-18T12:40:47.158Z,2.24
2023-05-18T12:41:47.163Z,2.60
2023-05-18T12:42:47.254Z,3.07
2023-05-18T12:43:47.263Z,2.66
2023-05-18T12:44:47.327Z,2.69
2023-05-18T12:45:47.343Z,2.42
2023-05-18T12:46:47.349Z,3.08
2023-05-18T12:47:47.484Z,2.61
2023-05-18T12:48:47.420Z,2.67
2023-05-18T12:49:47.369Z,2.47
2023-05-18T12:50:47.452Z,2.59
2023-05-18T12:51:47.493Z,2.45
2023-05-18T12:52:47.464Z,2.91
2023-05-18T12:53:47.483Z,2.25
2023-05-18T12:54:47.509Z,2.45
2023-05-18T12:55:47.544Z,2.33
2023-05-18T12:56:47.554Z,2.07
2023-05-18T12:57:47.584Z,2.05
2023-05-18T12:58:48.493Z,2.59
2023-05-18T12:59:47.575Z,2.25
2023-05-18T13:00:47.599Z,2.11
2023-05-18T13:01:47.727Z,2.32
2023-05-18T13:02:47.710Z,2.31
2023-05-18T13:03:47.844Z,2.55
2023-05-18T13:04:47.809Z,2.21
2023-05-18T13:05:47.832Z,2.37
2023-05-18T13:06:47.843Z,2.31
2023-05-18T13:07:47.850Z,2.57
2023-05-18T13:08:47.917Z,2.98
2023-05-18T13:09:47.983Z,2.85
2023-05-18T13:10:55.266Z,2.55
2023-05-18T13:11:51.946Z,2.85
2023-05-18T13:12:49.010Z,2.41
2023-05-18T13:13:48.002Z,2.96
2023-05-18T13:14:47.999Z,2.38
2023-05-18T13:15:47.943Z,3.22
2023-05-18T13:16:48.033Z,2.84
2023-05-18T13:17:48.021Z,2.82
2023-05-18T13:18:47.972Z,2.02
2023-05-18T13:19:47.939Z,2.60